sensor_id;sensor_type;location;lat;lon;timestamp;P1;durP1;ratioP1;P2;durP2;ratioP2
58306;SDS011;44116;50.884;4.768;2023-04-01T00:02:10;5.0;;;1.4;;
58306;SDS011;44116;50.884;4.768;2023-04-01T00:04:10;5.4;;;1.1;;
58306;SDS011;44116;50.884;4.768;2023-04-01T00:06:11;5.8;;;1.3;;
58306;SDS011;44116;50.884;4.768;2023-04-01T00:08:09;4.8;;;1.1;;
58306;SDS011;44116;50.884;4.768;2023-04-01T00:10:11;5.7;;;1.3;;
58306;SDS011;44116;50.884;4.768;2023-04-01T00:12:08;5.9;;;1.4;;
58306;SDS011;44116;50.884;4.768;2023-04-01T00:14:08;5.0;;;1.2;;
58306;SDS011;44116;50.884;4.768;2023-04-01T00:16:09;3.8;;;1.0;;
58306;SDS011;44116;50.884;4.768;2023-04-01T00:18:07;5.2;;;1.3;;
58306;SDS011;44116;50.884;4.768;2023-04-01T00:20:07;3.8;;;1.1;;
58306;SDS011;44116;50.884;4.768;2023-04-01T00:22:07;4.5;;;1.3;;
58306;SDS011;44116;50.884;4.768;2023-04-01T00:24:06;4.7;;;1.2;;
58306;SDS011;44116;50.884;4.768;2023-04-01T00:26:06;4.2;;;1.3;;
58306;SDS011;44116;50.884;4.768;2023-04-01T00:28:06;5.0;;;1.6;;
58306;SDS011;44116;50.884;4.768;2023-04-01T00:30:07;4.3;;;1.0;;
58306;SDS011;44116;50.884;4.768;2023-04-01T00:32:05;3.5;;;1.1;;
58306;SDS011;44116;50.884;4.768;2023-04-01T00:34:05;4.7;;;1.0;;
58306;SDS011;44116;50.884;4.768;2023-04-01T00:36:07;4.8;;;1.1;;
58306;SDS011;44116;50.884;4.768;2023-04-01T00:42:04;5.6;;;1.4;;
58306;SDS011;44116;50.884;4.768;2023-04-01T00:44:15;5.2;;;1.1;;
58306;SDS011;44116;50.884;4.768;2023-04-01T00:46:03;4.2;;;1.3;;
58306;SDS011;44116;50.884;4.768;2023-04-01T00:48:06;6.4;;;1.2;;
58306;SDS011;44116;50.884;4.768;2023-04-01T00:52:04;4.2;;;1.1;;
58306;SDS011;44116;50.884;4.768;2023-04-01T00:56:05;4.9;;;1.2;;
58306;SDS011;44116;50.884;4.768;2023-04-01T00:58:03;3.1;;;1.0;;
58306;SDS011;44116;50.884;4.768;2023-04-01T01:00:00;6.6;;;1.2;;
58306;SDS011;44116;50.884;4.768;2023-04-01T01:04:00;4.2;;;0.9;;
58306;SDS011;44116;50.884;4.768;2023-04-01T01:06:08;3.5;;;1.1;;
58306;SDS011;44116;50.884;4.768;2023-04-01T01:08:05;4.3;;;1.0;;
58306;SDS011;44116;50.884;4.768;2023-04-01T01:10:03;3.7;;;0.9;;
58306;SDS011;44116;50.884;4.768;2023-04-01T01:20:14;2.4;;;0.8;;
58306;SDS011;44116;50.884;4.768;2023-04-01T01:24:08;1.5;;;1.0;;
58306;SDS011;44116;50.884;4.768;2023-04-01T01:26:11;1.4;;;0.7;;
58306;SDS011;44116;50.884;4.768;2023-04-01T01:30:06;2.2;;;0.8;;
58306;SDS011;44116;50.884;4.768;2023-04-01T01:32:02;2.2;;;0.7;;
58306;SDS011;44116;50.884;4.768;2023-04-01T01:34:05;2.3;;;0.8;;
58306;SDS011;44116;50.884;4.768;2023-04-01T01:35:56;2.0;;;0.7;;
58306;SDS011;44116;50.884;4.768;2023-04-01T01:39:57;2.6;;;0.8;;
58306;SDS011;44116;50.884;4.768;2023-04-01T01:41:56;1.9;;;0.6;;
58306;SDS011;44116;50.884;4.768;2023-04-01T01:43:56;1.3;;;0.7;;
58306;SDS011;44116;50.884;4.768;2023-04-01T01:45:56;2.3;;;0.9;;
58306;SDS011;44116;50.884;4.768;2023-04-01T01:47:55;2.9;;;1.2;;
58306;SDS011;44116;50.884;4.768;2023-04-01T01:49:53;2.4;;;0.9;;
58306;SDS011;44116;50.884;4.768;2023-04-01T01:51:52;3.5;;;0.8;;
58306;SDS011;44116;50.884;4.768;2023-04-01T01:53:52;3.4;;;1.0;;
58306;SDS011;44116;50.884;4.768;2023-04-01T01:55:51;2.2;;;0.7;;
58306;SDS011;44116;50.884;4.768;2023-04-01T01:57:51;3.6;;;0.8;;
58306;SDS011;44116;50.884;4.768;2023-04-01T01:59:52;2.6;;;1.0;;
58306;SDS011;44116;50.884;4.768;2023-04-01T02:01:53;1.7;;;0.7;;
58306;SDS011;44116;50.884;4.768;2023-04-01T02:05:51;2.9;;;1.0;;
58306;SDS011;44116;50.884;4.768;2023-04-01T02:07:55;1.6;;;0.9;;
58306;SDS011;44116;50.884;4.768;2023-04-01T02:09:49;1.4;;;0.7;;
58306;SDS011;44116;50.884;4.768;2023-04-01T02:15:49;3.0;;;0.9;;
58306;SDS011;44116;50.884;4.768;2023-04-01T02:17:49;1.4;;;0.8;;
58306;SDS011;44116;50.884;4.768;2023-04-01T02:19:50;2.1;;;1.0;;
58306;SDS011;44116;50.884;4.768;2023-04-01T02:21:49;2.9;;;0.9;;
58306;SDS011;44116;50.884;4.768;2023-04-01T02:23:47;2.1;;;1.3;;
58306;SDS011;44116;50.884;4.768;2023-04-01T02:25:47;4.0;;;1.6;;
58306;SDS011;44116;50.884;4.768;2023-04-01T02:27:47;3.5;;;1.5;;
58306;SDS011;44116;50.884;4.768;2023-04-01T02:29:46;2.8;;;1.2;;
58306;SDS011;44116;50.884;4.768;2023-04-01T02:31:46;3.0;;;1.3;;
58306;SDS011;44116;50.884;4.768;2023-04-01T02:33:46;3.3;;;1.4;;
58306;SDS011;44116;50.884;4.768;2023-04-01T02:35:45;3.1;;;1.2;;
58306;SDS011;44116;50.884;4.768;2023-04-01T02:37:46;4.1;;;1.3;;
58306;SDS011;44116;50.884;4.768;2023-04-01T02:39:44;1.6;;;1.2;;
58306;SDS011;44116;50.884;4.768;2023-04-01T02:43:44;2.4;;;0.9;;
58306;SDS011;44116;50.884;4.768;2023-04-01T02:45:43;2.3;;;1.3;;
58306;SDS011;44116;50.884;4.768;2023-04-01T02:47:43;2.4;;;1.4;;
58306;SDS011;44116;50.884;4.768;2023-04-01T02:49:43;2.6;;;1.1;;
58306;SDS011;44116;50.884;4.768;2023-04-01T02:51:42;1.6;;;1.2;;
58306;SDS011;44116;50.884;4.768;2023-04-01T02:53:42;4.1;;;1.7;;
58306;SDS011;44116;50.884;4.768;2023-04-01T02:55:42;3.6;;;1.5;;
58306;SDS011;44116;50.884;4.768;2023-04-01T02:59:41;3.8;;;1.3;;
58306;SDS011;44116;50.884;4.768;2023-04-01T03:01:41;4.5;;;1.6;;
58306;SDS011;44116;50.884;4.768;2023-04-01T03:03:40;3.9;;;1.4;;
58306;SDS011;44116;50.884;4.768;2023-04-01T03:05:40;4.0;;;1.6;;
58306;SDS011;44116;50.884;4.768;2023-04-01T03:09:40;4.0;;;2.1;;
58306;SDS011;44116;50.884;4.768;2023-04-01T03:11:39;5.1;;;2.0;;
58306;SDS011;44116;50.884;4.768;2023-04-01T03:13:39;2.8;;;1.7;;
58306;SDS011;44116;50.884;4.768;2023-04-01T03:15:38;3.9;;;1.9;;
58306;SDS011;44116;50.884;4.768;2023-04-01T03:17:38;5.6;;;2.1;;
58306;SDS011;44116;50.884;4.768;2023-04-01T03:19:38;7.0;;;1.8;;
58306;SDS011;44116;50.884;4.768;2023-04-01T03:21:38;6.1;;;1.9;;
58306;SDS011;44116;50.884;4.768;2023-04-01T03:23:37;5.6;;;1.8;;
58306;SDS011;44116;50.884;4.768;2023-04-01T03:25:37;4.2;;;1.7;;
58306;SDS011;44116;50.884;4.768;2023-04-01T03:27:37;7.0;;;1.8;;
58306;SDS011;44116;50.884;4.768;2023-04-01T03:29:36;5.0;;;1.5;;
58306;SDS011;44116;50.884;4.768;2023-04-01T03:31:36;5.1;;;1.7;;
58306;SDS011;44116;50.884;4.768;2023-04-01T03:33:36;5.5;;;1.8;;
58306;SDS011;44116;50.884;4.768;2023-04-01T03:35:35;4.7;;;2.0;;
58306;SDS011;44116;50.884;4.768;2023-04-01T03:37:35;5.3;;;1.8;;
58306;SDS011;44116;50.884;4.768;2023-04-01T03:39:34;4.0;;;2.1;;
58306;SDS011;44116;50.884;4.768;2023-04-01T03:41:35;3.9;;;1.9;;
58306;SDS011;44116;50.884;4.768;2023-04-01T03:43:34;7.8;;;2.3;;
58306;SDS011;44116;50.884;4.768;2023-04-01T03:45:34;4.4;;;2.1;;
58306;SDS011;44116;50.884;4.768;2023-04-01T03:47:33;5.9;;;2.0;;
58306;SDS011;44116;50.884;4.768;2023-04-01T03:49:33;4.7;;;2.2;;
58306;SDS011;44116;50.884;4.768;2023-04-01T03:51:33;5.8;;;2.3;;
58306;SDS011;44116;50.884;4.768;2023-04-01T03:53:32;7.5;;;2.6;;
58306;SDS011;44116;50.884;4.768;2023-04-01T03:55:32;5.6;;;2.3;;
58306;SDS011;44116;50.884;4.768;2023-04-01T03:57:32;7.0;;;2.4;;
58306;SDS011;44116;50.884;4.768;2023-04-01T03:59:32;6.0;;;2.5;;
58306;SDS011;44116;50.884;4.768;2023-04-01T04:01:31;8.0;;;2.9;;
58306;SDS011;44116;50.884;4.768;2023-04-01T04:03:31;7.2;;;2.8;;
58306;SDS011;44116;50.884;4.768;2023-04-01T04:05:30;7.6;;;3.4;;
58306;SDS011;44116;50.884;4.768;2023-04-01T04:07:30;6.1;;;2.9;;
58306;SDS011;44116;50.884;4.768;2023-04-01T04:09:30;9.5;;;3.0;;
58306;SDS011;44116;50.884;4.768;2023-04-01T04:11:30;7.1;;;3.5;;
58306;SDS011;44116;50.884;4.768;2023-04-01T04:13:29;7.1;;;3.8;;
58306;SDS011;44116;50.884;4.768;2023-04-01T04:15:29;8.7;;;3.4;;
58306;SDS011;44116;50.884;4.768;2023-04-01T04:17:28;8.4;;;3.5;;
58306;SDS011;44116;50.884;4.768;2023-04-01T04:19:32;9.1;;;3.8;;
58306;SDS011;44116;50.884;4.768;2023-04-01T04:21:28;9.1;;;3.4;;
58306;SDS011;44116;50.884;4.768;2023-04-01T04:23:27;8.7;;;4.2;;
58306;SDS011;44116;50.884;4.768;2023-04-01T04:25:27;9.4;;;4.0;;
58306;SDS011;44116;50.884;4.768;2023-04-01T04:27:27;9.2;;;3.8;;
58306;SDS011;44116;50.884;4.768;2023-04-01T04:29:26;10.8;;;4.2;;
58306;SDS011;44116;50.884;4.768;2023-04-01T04:31:26;10.5;;;4.7;;
58306;SDS011;44116;50.884;4.768;2023-04-01T04:33:26;9.2;;;3.8;;
58306;SDS011;44116;50.884;4.768;2023-04-01T04:35:25;11.8;;;5.0;;
58306;SDS011;44116;50.884;4.768;2023-04-01T04:37:25;8.3;;;3.9;;
58306;SDS011;44116;50.884;4.768;2023-04-01T04:39:25;9.0;;;4.4;;
58306;SDS011;44116;50.884;4.768;2023-04-01T04:41:24;8.8;;;4.2;;
58306;SDS011;44116;50.884;4.768;2023-04-01T04:43:24;10.9;;;4.4;;
58306;SDS011;44116;50.884;4.768;2023-04-01T04:45:24;10.3;;;4.6;;
58306;SDS011;44116;50.884;4.768;2023-04-01T04:47:23;9.9;;;4.1;;
58306;SDS011;44116;50.884;4.768;2023-04-01T04:49:23;9.7;;;3.8;;
58306;SDS011;44116;50.884;4.768;2023-04-01T04:51:23;9.0;;;3.9;;
58306;SDS011;44116;50.884;4.768;2023-04-01T04:53:23;8.1;;;4.0;;
58306;SDS011;44116;50.884;4.768;2023-04-01T04:55:22;7.6;;;3.6;;
58306;SDS011;44116;50.884;4.768;2023-04-01T04:57:22;7.2;;;3.3;;
58306;SDS011;44116;50.884;4.768;2023-04-01T04:59:22;7.7;;;3.6;;
58306;SDS011;44116;50.884;4.768;2023-04-01T05:01:22;5.0;;;2.9;;
58306;SDS011;44116;50.884;4.768;2023-04-01T05:03:21;5.5;;;2.8;;
58306;SDS011;44116;50.884;4.768;2023-04-01T05:05:21;6.1;;;2.7;;
58306;SDS011;44116;50.884;4.768;2023-04-01T05:07:20;6.0;;;2.9;;
58306;SDS011;44116;50.884;4.768;2023-04-01T05:09:20;5.7;;;2.7;;
58306;SDS011;44116;50.884;4.768;2023-04-01T05:11:20;4.3;;;2.4;;
58306;SDS011;44116;50.884;4.768;2023-04-01T05:13:19;7.7;;;2.9;;
58306;SDS011;44116;50.884;4.768;2023-04-01T05:15:19;5.4;;;2.4;;
58306;SDS011;44116;50.884;4.768;2023-04-01T05:17:19;5.4;;;2.5;;
58306;SDS011;44116;50.884;4.768;2023-04-01T05:19:18;5.2;;;2.4;;
58306;SDS011;44116;50.884;4.768;2023-04-01T05:21:18;3.4;;;2.3;;
58306;SDS011;44116;50.884;4.768;2023-04-01T05:23:18;4.1;;;2.2;;
58306;SDS011;44116;50.884;4.768;2023-04-01T05:27:17;3.8;;;1.9;;
58306;SDS011;44116;50.884;4.768;2023-04-01T05:29:17;4.6;;;1.7;;
58306;SDS011;44116;50.884;4.768;2023-04-01T05:31:16;2.9;;;1.6;;
58306;SDS011;44116;50.884;4.768;2023-04-01T05:33:16;3.9;;;1.7;;
58306;SDS011;44116;50.884;4.768;2023-04-01T05:37:15;3.5;;;1.6;;
58306;SDS011;44116;50.884;4.768;2023-04-01T05:41:15;3.5;;;1.8;;
58306;SDS011;44116;50.884;4.768;2023-04-01T05:43:14;3.0;;;1.9;;
58306;SDS011;44116;50.884;4.768;2023-04-01T05:45:15;3.5;;;1.7;;
58306;SDS011;44116;50.884;4.768;2023-04-01T05:47:14;2.2;;;1.6;;
58306;SDS011;44116;50.884;4.768;2023-04-01T05:51:14;2.7;;;1.4;;
58306;SDS011;44116;50.884;4.768;2023-04-01T05:53:13;2.1;;;1.2;;
58306;SDS011;44116;50.884;4.768;2023-04-01T05:55:12;1.6;;;1.4;;
58306;SDS011;44116;50.884;4.768;2023-04-01T05:57:12;1.7;;;1.0;;
58306;SDS011;44116;50.884;4.768;2023-04-01T05:59:12;2.7;;;1.1;;
58306;SDS011;44116;50.884;4.768;2023-04-01T06:01:11;1.3;;;1.2;;
58306;SDS011;44116;50.884;4.768;2023-04-01T06:05:14;2.2;;;1.6;;
58306;SDS011;44116;50.884;4.768;2023-04-01T06:07:11;1.6;;;1.3;;
58306;SDS011;44116;50.884;4.768;2023-04-01T06:09:14;2.2;;;1.6;;
58306;SDS011;44116;50.884;4.768;2023-04-01T06:11:19;2.5;;;1.8;;
58306;SDS011;44116;50.884;4.768;2023-04-01T06:13:20;4.2;;;2.0;;
58306;SDS011;44116;50.884;4.768;2023-04-01T06:15:25;3.2;;;1.9;;
58306;SDS011;44116;50.884;4.768;2023-04-01T06:21:23;4.0;;;2.2;;
58306;SDS011;44116;50.884;4.768;2023-04-01T06:23:18;3.3;;;2.0;;
58306;SDS011;44116;50.884;4.768;2023-04-01T06:25:25;3.9;;;2.3;;
58306;SDS011;44116;50.884;4.768;2023-04-01T06:27:16;3.8;;;2.4;;
58306;SDS011;44116;50.884;4.768;2023-04-01T06:29:28;4.0;;;2.5;;
58306;SDS011;44116;50.884;4.768;2023-04-01T06:31:12;5.8;;;2.7;;
58306;SDS011;44116;50.884;4.768;2023-04-01T06:33:20;5.2;;;2.5;;
58306;SDS011;44116;50.884;4.768;2023-04-01T06:35:17;5.1;;;2.8;;
58306;SDS011;44116;50.884;4.768;2023-04-01T06:39:17;4.5;;;2.7;;
58306;SDS011;44116;50.884;4.768;2023-04-01T06:41:16;5.9;;;2.8;;
58306;SDS011;44116;50.884;4.768;2023-04-01T06:43:10;5.9;;;3.2;;
58306;SDS011;44116;50.884;4.768;2023-04-01T06:45:13;6.7;;;2.9;;
58306;SDS011;44116;50.884;4.768;2023-04-01T06:47:20;4.1;;;2.4;;
58306;SDS011;44116;50.884;4.768;2023-04-01T06:49:17;4.5;;;2.7;;
58306;SDS011;44116;50.884;4.768;2023-04-01T06:51:13;4.2;;;2.5;;
58306;SDS011;44116;50.884;4.768;2023-04-01T06:53:09;5.2;;;2.9;;
58306;SDS011;44116;50.884;4.768;2023-04-01T06:55:17;6.2;;;2.8;;
58306;SDS011;44116;50.884;4.768;2023-04-01T06:57:10;4.8;;;2.5;;
58306;SDS011;44116;50.884;4.768;2023-04-01T06:59:05;5.1;;;2.9;;
58306;SDS011;44116;50.884;4.768;2023-04-01T07:01:03;4.4;;;2.6;;
58306;SDS011;44116;50.884;4.768;2023-04-01T07:03:06;5.5;;;2.9;;
58306;SDS011;44116;50.884;4.768;2023-04-01T07:07:04;5.5;;;3.3;;
58306;SDS011;44116;50.884;4.768;2023-04-01T07:09:05;6.5;;;2.8;;
58306;SDS011;44116;50.884;4.768;2023-04-01T07:11:03;5.1;;;2.6;;
58306;SDS011;44116;50.884;4.768;2023-04-01T07:13:04;5.5;;;3.3;;
58306;SDS011;44116;50.884;4.768;2023-04-01T07:17:04;7.3;;;3.2;;
58306;SDS011;44116;50.884;4.768;2023-04-01T07:19:02;5.8;;;3.5;;
58306;SDS011;44116;50.884;4.768;2023-04-01T07:21:00;5.1;;;3.3;;
58306;SDS011;44116;50.884;4.768;2023-04-01T07:22:59;5.4;;;3.4;;
58306;SDS011;44116;50.884;4.768;2023-04-01T07:25:02;5.0;;;2.8;;
58306;SDS011;44116;50.884;4.768;2023-04-01T07:26:58;5.9;;;3.3;;
58306;SDS011;44116;50.884;4.768;2023-04-01T07:31:04;4.4;;;2.9;;
58306;SDS011;44116;50.884;4.768;2023-04-01T07:33:03;5.1;;;3.0;;
58306;SDS011;44116;50.884;4.768;2023-04-01T07:37:01;4.6;;;2.6;;
58306;SDS011;44116;50.884;4.768;2023-04-01T07:39:04;5.8;;;3.2;;
58306;SDS011;44116;50.884;4.768;2023-04-01T07:41:02;4.1;;;2.1;;
58306;SDS011;44116;50.884;4.768;2023-04-01T07:43:08;3.3;;;2.4;;
58306;SDS011;44116;50.884;4.768;2023-04-01T07:47:06;5.2;;;2.1;;
58306;SDS011;44116;50.884;4.768;2023-04-01T07:48:59;3.2;;;1.6;;
58306;SDS011;44116;50.884;4.768;2023-04-01T07:51:00;2.4;;;1.3;;
58306;SDS011;44116;50.884;4.768;2023-04-01T07:53:02;1.7;;;1.2;;
58306;SDS011;44116;50.884;4.768;2023-04-01T07:56:59;3.2;;;1.0;;
58306;SDS011;44116;50.884;4.768;2023-04-01T07:58:58;1.3;;;0.9;;
58306;SDS011;44116;50.884;4.768;2023-04-01T08:03:07;1.4;;;1.0;;
58306;SDS011;44116;50.884;4.768;2023-04-01T08:06:58;2.0;;;1.3;;
58306;SDS011;44116;50.884;4.768;2023-04-01T08:10:54;1.9;;;1.2;;
58306;SDS011;44116;50.884;4.768;2023-04-01T08:13:00;1.8;;;1.3;;
58306;SDS011;44116;50.884;4.768;2023-04-01T08:16:57;4.9;;;1.4;;
58306;SDS011;44116;50.884;4.768;2023-04-01T08:18:56;1.6;;;0.9;;
58306;SDS011;44116;50.884;4.768;2023-04-01T08:20:52;2.1;;;0.8;;
58306;SDS011;44116;50.884;4.768;2023-04-01T08:22:51;2.3;;;0.9;;
58306;SDS011;44116;50.884;4.768;2023-04-01T08:24:49;1.4;;;0.8;;
58306;SDS011;44116;50.884;4.768;2023-04-01T08:26:51;1.2;;;0.7;;
58306;SDS011;44116;50.884;4.768;2023-04-01T08:28:52;2.6;;;1.1;;
58306;SDS011;44116;50.884;4.768;2023-04-01T08:30:50;1.2;;;0.7;;
58306;SDS011;44116;50.884;4.768;2023-04-01T08:34:53;1.2;;;0.6;;
58306;SDS011;44116;50.884;4.768;2023-04-01T08:36:50;1.0;;;0.7;;
58306;SDS011;44116;50.884;4.768;2023-04-01T08:38:49;1.1;;;0.6;;
58306;SDS011;44116;50.884;4.768;2023-04-01T08:40:55;1.9;;;0.9;;
58306;SDS011;44116;50.884;4.768;2023-04-01T08:42:54;0.9;;;0.6;;
58306;SDS011;44116;50.884;4.768;2023-04-01T08:46:57;1.6;;;0.8;;
58306;SDS011;44116;50.884;4.768;2023-04-01T08:48:57;3.1;;;1.1;;
58306;SDS011;44116;50.884;4.768;2023-04-01T08:50:57;1.7;;;0.8;;
58306;SDS011;44116;50.884;4.768;2023-04-01T08:52:46;1.7;;;0.9;;
58306;SDS011;44116;50.884;4.768;2023-04-01T09:05:00;1.6;;;1.0;;
58306;SDS011;44116;50.884;4.768;2023-04-01T09:06:51;1.9;;;0.9;;
58306;SDS011;44116;50.884;4.768;2023-04-01T09:08:53;1.8;;;1.2;;
58306;SDS011;44116;50.884;4.768;2023-04-01T09:10:55;1.8;;;0.9;;
58306;SDS011;44116;50.884;4.768;2023-04-01T09:12:52;2.8;;;1.0;;
58306;SDS011;44116;50.884;4.768;2023-04-01T09:14:53;0.8;;;0.8;;
58306;SDS011;44116;50.884;4.768;2023-04-01T09:16:56;1.8;;;1.0;;
58306;SDS011;44116;50.884;4.768;2023-04-01T09:18:54;0.8;;;0.8;;
58306;SDS011;44116;50.884;4.768;2023-04-01T09:20:47;1.7;;;0.9;;
58306;SDS011;44116;50.884;4.768;2023-04-01T09:24:46;2.5;;;1.0;;
58306;SDS011;44116;50.884;4.768;2023-04-01T09:26:51;1.6;;;0.9;;
58306;SDS011;44116;50.884;4.768;2023-04-01T09:32:48;1.3;;;0.8;;
58306;SDS011;44116;50.884;4.768;2023-04-01T09:38:48;1.5;;;1.0;;
58306;SDS011;44116;50.884;4.768;2023-04-01T09:40:43;0.7;;;0.7;;
58306;SDS011;44116;50.884;4.768;2023-04-01T09:42:44;1.0;;;0.8;;
58306;SDS011;44116;50.884;4.768;2023-04-01T09:44:37;0.8;;;0.7;;
58306;SDS011;44116;50.884;4.768;2023-04-01T09:46:49;1.0;;;0.8;;
58306;SDS011;44116;50.884;4.768;2023-04-01T09:52:38;1.8;;;1.1;;
58306;SDS011;44116;50.884;4.768;2023-04-01T10:00:49;2.2;;;1.2;;
58306;SDS011;44116;50.884;4.768;2023-04-01T10:04:47;1.4;;;1.0;;
58306;SDS011;44116;50.884;4.768;2023-04-01T10:06:51;1.6;;;1.1;;
58306;SDS011;44116;50.884;4.768;2023-04-01T10:10:46;1.6;;;1.2;;
58306;SDS011;44116;50.884;4.768;2023-04-01T10:14:43;2.6;;;1.5;;
58306;SDS011;44116;50.884;4.768;2023-04-01T10:16:45;1.9;;;1.4;;
58306;SDS011;44116;50.884;4.768;2023-04-01T10:18:44;2.8;;;1.6;;
58306;SDS011;44116;50.884;4.768;2023-04-01T10:20:43;2.7;;;1.8;;
58306;SDS011;44116;50.884;4.768;2023-04-01T10:24:43;2.5;;;2.0;;
58306;SDS011;44116;50.884;4.768;2023-04-01T10:26:43;3.5;;;1.9;;
58306;SDS011;44116;50.884;4.768;2023-04-01T10:28:44;2.2;;;1.8;;
58306;SDS011;44116;50.884;4.768;2023-04-01T10:30:46;4.3;;;2.1;;
58306;SDS011;44116;50.884;4.768;2023-04-01T10:32:42;4.0;;;2.0;;
58306;SDS011;44116;50.884;4.768;2023-04-01T10:38:42;3.5;;;1.9;;
58306;SDS011;44116;50.884;4.768;2023-04-01T10:44:42;3.3;;;2.3;;
58306;SDS011;44116;50.884;4.768;2023-04-01T10:54:39;2.8;;;2.1;;
58306;SDS011;44116;50.884;4.768;2023-04-01T11:00:36;2.9;;;1.8;;
58306;SDS011;44116;50.884;4.768;2023-04-01T11:04:39;2.8;;;1.6;;
58306;SDS011;44116;50.884;4.768;2023-04-01T11:08:39;3.6;;;1.5;;
58306;SDS011;44116;50.884;4.768;2023-04-01T11:10:41;3.1;;;1.6;;
58306;SDS011;44116;50.884;4.768;2023-04-01T11:12:42;2.4;;;1.3;;
58306;SDS011;44116;50.884;4.768;2023-04-01T11:22:35;2.9;;;1.3;;
58306;SDS011;44116;50.884;4.768;2023-04-01T11:24:29;2.9;;;1.2;;
58306;SDS011;44116;50.884;4.768;2023-04-01T11:26:32;1.4;;;1.1;;
58306;SDS011;44116;50.884;4.768;2023-04-01T11:28:33;1.6;;;0.9;;
58306;SDS011;44116;50.884;4.768;2023-04-01T11:30:25;1.1;;;1.0;;
58306;SDS011;44116;50.884;4.768;2023-04-01T11:32:28;2.5;;;1.1;;
58306;SDS011;44116;50.884;4.768;2023-04-01T11:36:29;1.5;;;0.9;;
58306;SDS011;44116;50.884;4.768;2023-04-01T11:38:26;1.9;;;1.0;;
58306;SDS011;44116;50.884;4.768;2023-04-01T11:42:26;1.3;;;0.9;;
58306;SDS011;44116;50.884;4.768;2023-04-01T11:46:23;1.3;;;1.0;;
58306;SDS011;44116;50.884;4.768;2023-04-01T11:48:28;2.6;;;0.9;;
58306;SDS011;44116;50.884;4.768;2023-04-01T11:56:29;1.4;;;1.0;;
58306;SDS011;44116;50.884;4.768;2023-04-01T11:58:31;1.6;;;0.9;;
58306;SDS011;44116;50.884;4.768;2023-04-01T12:00:24;1.5;;;1.0;;
58306;SDS011;44116;50.884;4.768;2023-04-01T12:02:23;1.7;;;0.9;;
58306;SDS011;44116;50.884;4.768;2023-04-01T12:08:25;3.1;;;0.9;;
58306;SDS011;44116;50.884;4.768;2023-04-01T12:10:18;1.4;;;1.1;;
58306;SDS011;44116;50.884;4.768;2023-04-01T12:12:20;3.1;;;1.3;;
58306;SDS011;44116;50.884;4.768;2023-04-01T12:14:17;1.5;;;1.2;;
58306;SDS011;44116;50.884;4.768;2023-04-01T12:16:27;2.3;;;1.1;;
58306;SDS011;44116;50.884;4.768;2023-04-01T12:18:16;1.6;;;1.0;;
58306;SDS011;44116;50.884;4.768;2023-04-01T12:20:30;1.5;;;0.8;;
58306;SDS011;44116;50.884;4.768;2023-04-01T12:22:23;2.5;;;1.0;;
58306;SDS011;44116;50.884;4.768;2023-04-01T12:24:25;1.6;;;1.1;;
58306;SDS011;44116;50.884;4.768;2023-04-01T12:26:24;1.0;;;0.9;;
58306;SDS011;44116;50.884;4.768;2023-04-01T12:28:18;2.8;;;1.0;;
58306;SDS011;44116;50.884;4.768;2023-04-01T12:30:26;1.0;;;0.8;;
58306;SDS011;44116;50.884;4.768;2023-04-01T12:32:16;1.6;;;0.9;;
58306;SDS011;44116;50.884;4.768;2023-04-01T12:36:17;1.5;;;0.8;;
58306;SDS011;44116;50.884;4.768;2023-04-01T12:38:18;1.3;;;0.9;;
58306;SDS011;44116;50.884;4.768;2023-04-01T12:42:16;2.1;;;1.1;;
58306;SDS011;44116;50.884;4.768;2023-04-01T12:44:19;1.2;;;0.9;;
58306;SDS011;44116;50.884;4.768;2023-04-01T12:48:22;1.4;;;1.0;;
58306;SDS011;44116;50.884;4.768;2023-04-01T12:52:10;2.1;;;1.1;;
58306;SDS011;44116;50.884;4.768;2023-04-01T12:56:13;1.2;;;1.1;;
58306;SDS011;44116;50.884;4.768;2023-04-01T12:58:19;1.5;;;1.0;;
58306;SDS011;44116;50.884;4.768;2023-04-01T13:00:17;2.9;;;1.1;;
58306;SDS011;44116;50.884;4.768;2023-04-01T13:02:12;1.7;;;1.0;;
58306;SDS011;44116;50.884;4.768;2023-04-01T13:08:14;2.3;;;1.0;;
58306;SDS011;44116;50.884;4.768;2023-04-01T13:10:12;2.9;;;0.9;;
58306;SDS011;44116;50.884;4.768;2023-04-01T13:14:09;2.0;;;1.1;;
58306;SDS011;44116;50.884;4.768;2023-04-01T13:16:07;0.7;;;0.7;;
58306;SDS011;44116;50.884;4.768;2023-04-01T13:18:11;1.4;;;0.9;;
58306;SDS011;44116;50.884;4.768;2023-04-01T13:20:06;1.6;;;0.8;;
58306;SDS011;44116;50.884;4.768;2023-04-01T13:22:08;1.6;;;0.9;;
58306;SDS011;44116;50.884;4.768;2023-04-01T13:24:09;1.9;;;0.7;;
58306;SDS011;44116;50.884;4.768;2023-04-01T13:28:09;1.1;;;0.9;;
58306;SDS011;44116;50.884;4.768;2023-04-01T13:30:13;1.0;;;0.7;;
58306;SDS011;44116;50.884;4.768;2023-04-01T13:32:10;1.2;;;0.9;;
58306;SDS011;44116;50.884;4.768;2023-04-01T13:34:14;0.8;;;0.7;;
58306;SDS011;44116;50.884;4.768;2023-04-01T13:38:17;4.1;;;1.1;;
58306;SDS011;44116;50.884;4.768;2023-04-01T13:40:12;1.0;;;0.9;;
58306;SDS011;44116;50.884;4.768;2023-04-01T13:42:12;1.4;;;0.8;;
58306;SDS011;44116;50.884;4.768;2023-04-01T13:44:06;0.7;;;0.7;;
58306;SDS011;44116;50.884;4.768;2023-04-01T13:46:16;2.3;;;0.9;;
58306;SDS011;44116;50.884;4.768;2023-04-01T13:50:08;1.4;;;1.0;;
58306;SDS011;44116;50.884;4.768;2023-04-01T13:52:06;1.1;;;0.8;;
58306;SDS011;44116;50.884;4.768;2023-04-01T13:56:04;1.4;;;0.9;;
58306;SDS011;44116;50.884;4.768;2023-04-01T13:58:13;1.1;;;0.7;;
58306;SDS011;44116;50.884;4.768;2023-04-01T14:00:10;1.0;;;0.6;;
58306;SDS011;44116;50.884;4.768;2023-04-01T14:02:05;1.0;;;0.9;;
58306;SDS011;44116;50.884;4.768;2023-04-01T14:06:06;0.6;;;0.6;;
58306;SDS011;44116;50.884;4.768;2023-04-01T14:10:07;1.5;;;0.7;;
58306;SDS011;44116;50.884;4.768;2023-04-01T14:14:01;0.6;;;0.6;;
58306;SDS011;44116;50.884;4.768;2023-04-01T14:16:00;0.9;;;0.7;;
58306;SDS011;44116;50.884;4.768;2023-04-01T14:18:06;0.6;;;0.6;;
58306;SDS011;44116;50.884;4.768;2023-04-01T14:24:07;1.4;;;1.0;;
58306;SDS011;44116;50.884;4.768;2023-04-01T14:28:03;1.2;;;0.8;;
58306;SDS011;44116;50.884;4.768;2023-04-01T14:30:01;1.7;;;1.1;;
58306;SDS011;44116;50.884;4.768;2023-04-01T14:36:06;2.8;;;1.9;;
58306;SDS011;44116;50.884;4.768;2023-04-01T14:38:02;3.4;;;2.1;;
58306;SDS011;44116;50.884;4.768;2023-04-01T14:41:59;4.6;;;2.5;;
58306;SDS011;44116;50.884;4.768;2023-04-01T14:44:04;3.7;;;2.7;;
58306;SDS011;44116;50.884;4.768;2023-04-01T14:46:02;3.2;;;2.1;;
58306;SDS011;44116;50.884;4.768;2023-04-01T14:47:51;4.9;;;2.5;;
58306;SDS011;44116;50.884;4.768;2023-04-01T14:49:51;3.3;;;2.4;;
58306;SDS011;44116;50.884;4.768;2023-04-01T14:51:50;3.5;;;2.3;;
58306;SDS011;44116;50.884;4.768;2023-04-01T14:55:51;3.9;;;2.4;;
58306;SDS011;44116;50.884;4.768;2023-04-01T14:57:58;4.5;;;2.7;;
58306;SDS011;44116;50.884;4.768;2023-04-01T15:01:51;4.8;;;2.9;;
58306;SDS011;44116;50.884;4.768;2023-04-01T15:03:54;4.6;;;3.0;;
58306;SDS011;44116;50.884;4.768;2023-04-01T15:05:50;5.0;;;3.2;;
58306;SDS011;44116;50.884;4.768;2023-04-01T15:08:00;3.5;;;2.8;;
58306;SDS011;44116;50.884;4.768;2023-04-01T15:09:52;3.5;;;2.7;;
58306;SDS011;44116;50.884;4.768;2023-04-01T15:11:56;7.1;;;2.5;;
58306;SDS011;44116;50.884;4.768;2023-04-01T15:13:58;3.9;;;2.8;;
58306;SDS011;44116;50.884;4.768;2023-04-01T15:15:59;3.1;;;2.3;;
58306;SDS011;44116;50.884;4.768;2023-04-01T15:17:56;4.0;;;2.5;;
58306;SDS011;44116;50.884;4.768;2023-04-01T15:19:59;3.6;;;2.4;;
58306;SDS011;44116;50.884;4.768;2023-04-01T15:21:58;4.7;;;2.0;;
58306;SDS011;44116;50.884;4.768;2023-04-01T15:23:52;2.4;;;1.8;;
58306;SDS011;44116;50.884;4.768;2023-04-01T15:25:57;2.0;;;1.4;;
58306;SDS011;44116;50.884;4.768;2023-04-01T15:27:48;1.8;;;1.3;;
58306;SDS011;44116;50.884;4.768;2023-04-01T15:29:56;1.9;;;1.4;;
58306;SDS011;44116;50.884;4.768;2023-04-01T15:31:50;1.6;;;1.2;;
58306;SDS011;44116;50.884;4.768;2023-04-01T15:33:56;1.8;;;1.1;;
58306;SDS011;44116;50.884;4.768;2023-04-01T15:37:50;2.1;;;1.3;;
58306;SDS011;44116;50.884;4.768;2023-04-01T15:43:44;1.7;;;1.1;;
58306;SDS011;44116;50.884;4.768;2023-04-01T15:45:49;1.1;;;0.9;;
58306;SDS011;44116;50.884;4.768;2023-04-01T15:49:42;1.7;;;1.0;;
58306;SDS011;44116;50.884;4.768;2023-04-01T15:51:48;2.7;;;1.2;;
58306;SDS011;44116;50.884;4.768;2023-04-01T15:53:53;1.6;;;1.1;;
58306;SDS011;44116;50.884;4.768;2023-04-01T15:55:44;2.7;;;1.2;;
58306;SDS011;44116;50.884;4.768;2023-04-01T15:57:48;2.3;;;1.4;;
58306;SDS011;44116;50.884;4.768;2023-04-01T16:01:44;1.8;;;1.2;;